Time;durP1;ratioP1;P1;durP2;ratioP2;P2;SDS_P1;SDS_P2;PMS_P1;PMS_P2;Temp;Humidity;BMP_temperature;BMP_pressure;BME280_temperature;BME280_humidity;BME280_pressure;Samples;Min_cycle;Max_cycle;Signal;HPM_P1;HPM_P2
2021/03/25 00:01:23;;;;;;;0.05;0.05;;;15.50;67.20;;;;;;4196727;28;20849;-43
2021/03/25 00:03:47;;;;;;;0.25;0.25;;;15.40;67.20;;;;;;4196326;28;20062;-43
2021/03/25 00:06:08;;;;;;;0.38;0.38;;;15.40;67.30;;;;;;4196311;28;20087;-46
2021/03/25 00:08:29;;;;;;;0.75;0.70;;;15.40;67.40;;;;;;4196756;28;20155;-44
2021/03/25 00:10:50;;;;;;;0.03;0.03;;;15.40;67.50;;;;;;4180270;28;20400;-44
2021/03/25 00:13:13;;;;;;;0.52;0.52;;;15.40;67.50;;;;;;4180100;28;20049;-44
2021/03/25 00:15:35;;;;;;;0.30;0.30;;;15.30;67.50;;;;;;4180075;28;20491;-50
2021/03/25 00:17:56;;;;;;;0.05;0.05;;;15.30;67.60;;;;;;4180118;28;20080;-47
2021/03/25 00:20:21;;;;;;;0.13;0.13;;;15.30;67.70;;;;;;4180069;28;20049;-43
2021/03/25 00:22:42;;;;;;;0.75;0.75;;;15.30;67.70;;;;;;4195610;28;20404;-44
2021/03/25 00:25:05;;;;;;;0.17;0.17;;;15.30;67.80;;;;;;4179994;28;20409;-43
2021/03/25 00:27:26;;;;;;;0.20;0.20;;;15.30;67.80;;;;;;4179915;28;20057;-43
2021/03/25 00:29:48;;;;;;;0.35;0.35;;;15.30;67.90;;;;;;4190451;28;20510;-45
2021/03/25 00:32:09;;;;;;;0.30;0.30;;;15.30;67.90;;;;;;4196364;28;20052;-43
2021/03/25 00:34:30;;;;;;;1.65;1.55;;;15.30;68.00;;;;;;4196361;28;20067;-45
2021/03/25 00:36:51;;;;;;;0.10;0.10;;;15.30;68.20;;;;;;4196462;28;20056;-43
2021/03/25 00:39:13;;;;;;;1.25;1.25;;;15.20;68.20;;;;;;4195806;28;20065;-43
2021/03/25 00:41:35;;;;;;;1.13;1.13;;;15.30;68.30;;;;;;4195198;28;20063;-43
2021/03/25 00:43:56;;;;;;;0.20;0.20;;;15.20;68.20;;;;;;4195829;28;20844;-43
2021/03/25 00:46:17;;;;;;;0.00;0.00;;;15.20;68.30;;;;;;4195903;28;20045;-43
2021/03/25 00:48:39;;;;;;;0.25;0.25;;;15.20;68.40;;;;;;4196187;28;20806;-43
2021/03/25 00:51:01;;;;;;;0.63;0.63;;;15.20;68.50;;;;;;4195812;28;20446;-44
2021/03/25 00:53:28;;;;;;;1.75;1.63;;;15.20;68.50;;;;;;4195802;28;20083;-44
2021/03/25 00:55:49;;;;;;;0.00;0.00;;;15.20;68.50;;;;;;4195939;28;20052;-43
2021/03/25 00:58:10;;;;;;;0.10;0.10;;;15.20;68.60;;;;;;4195925;28;20083;-43
2021/03/25 01:00:34;;;;;;;0.13;0.13;;;15.20;68.70;;;;;;4179381;28;20064;-43
2021/03/25 01:02:57;;;;;;;0.47;0.47;;;15.20;68.70;;;;;;4184086;28;20566;-43
2021/03/25 01:05:19;;;;;;;0.65;0.65;;;15.20;68.80;;;;;;4194767;28;20044;-45
2021/03/25 01:07:40;;;;;;;0.00;0.00;;;15.20;68.80;;;;;;4195826;28;20060;-43
2021/03/25 01:10:02;;;;;;;0.35;0.35;;;15.20;68.80;;;;;;4195295;28;20056;-45
2021/03/25 01:12:23;;;;;;;1.00;1.00;;;15.20;68.80;;;;;;4195436;28;20060;-43
2021/03/25 01:14:44;;;;;;;0.10;0.10;;;15.10;68.80;;;;;;4195563;28;20049;-43
2021/03/25 01:17:05;;;;;;;0.65;0.63;;;15.10;69.00;;;;;;4195792;28;20060;-47
2021/03/25 01:19:30;;;;;;;4.45;0.52;;;15.10;69.10;;;;;;4195673;28;20418;-43
2021/03/25 01:21:52;;;;;;;1.08;0.80;;;15.10;69.10;;;;;;4194294;28;20045;-43
2021/03/25 01:24:14;;;;;;;0.00;0.00;;;15.10;69.10;;;;;;4188515;28;20546;-43
2021/03/25 01:26:36;;;;;;;0.80;0.80;;;15.10;69.20;;;;;;4194742;28;20078;-43
2021/03/25 01:29:00;;;;;;;0.13;0.13;;;15.10;69.30;;;;;;4194411;28;20114;-43
2021/03/25 01:31:23;;;;;;;0.17;0.17;;;15.00;69.30;;;;;;4195685;28;20844;-43
2021/03/25 01:33:45;;;;;;;0.45;0.45;;;15.00;69.40;;;;;;4194337;28;20132;-44
2021/03/25 01:36:08;;;;;;;0.20;0.20;;;15.00;69.50;;;;;;4195529;28;20097;-44
2021/03/25 01:38:29;;;;;;;0.40;0.40;;;15.00;69.50;;;;;;4195720;28;20155;-44
2021/03/25 01:40:53;;;;;;;0.00;0.00;;;15.00;69.50;;;;;;4194413;28;20052;-45
2021/03/25 01:43:22;;;;;;;0.20;0.20;;;15.00;69.60;;;;;;4195143;28;20412;-44
2021/03/25 01:45:51;;;;;;;0.10;0.10;;;15.00;69.60;;;;;;4194453;28;20063;-43
2021/03/25 01:48:14;;;;;;;0.00;0.00;;;15.00;69.70;;;;;;4195398;28;20044;-43
2021/03/25 01:50:36;;;;;;;0.43;0.43;;;15.00;69.70;;;;;;4194720;28;20053;-43
2021/03/25 01:53:14;;;;;;;0.28;0.28;;;15.00;69.80;;;;;;4197630;28;20139;-46
2021/03/25 01:55:47;;;;;;;0.40;0.40;;;14.90;69.80;;;;;;4181194;28;20439;-44
2021/03/25 01:58:33;;;;;;;0.55;0.55;;;14.90;69.90;;;;;;4182506;28;20135;-44
2021/03/25 02:01:00;;;;;;;0.55;0.55;;;14.90;69.90;;;;;;4198840;28;20106;-43
2021/03/25 02:04:04;;;;;;;0.20;0.20;;;14.90;69.90;;;;;;4197497;28;20103;-50
2021/03/25 02:06:36;;;;;;;0.00;0.00;;;14.90;70.00;;;;;;4130859;28;20102;-51
2021/03/25 02:09:08;;;;;;;0.63;0.63;;;14.90;70.10;;;;;;4197556;28;20548;-43
2021/03/25 02:12:01;;;;;;;0.10;0.10;;;14.90;70.20;;;;;;4197458;28;20045;-45
2021/03/25 02:14:33;;;;;;;0.35;0.35;;;14.90;70.20;;;;;;4194692;28;20076;-41
2021/03/25 02:17:01;;;;;;;0.00;0.00;;;14.90;70.30;;;;;;4181050;28;20134;-43
2021/03/25 02:20:11;;;;;;;0.75;0.75;;;14.90;70.30;;;;;;4195012;28;20046;-44
2021/03/25 02:23:06;;;;;;;0.30;0.30;;;14.90;70.40;;;;;;4187288;28;20040;-43
2021/03/25 02:25:35;;;;;;;1.23;1.13;;;14.80;70.40;;;;;;4194527;28;20597;-43
2021/03/25 02:28:27;;;;;;;0.43;0.43;;;14.80;70.40;;;;;;4196679;28;20534;-43
2021/03/25 02:30:59;;;;;;;0.13;0.13;;;14.80;70.40;;;;;;4197288;28;20091;-43
2021/03/25 02:33:22;;;;;;;0.43;0.43;;;14.80;70.40;;;;;;4198358;28;20405;-44
2021/03/25 02:36:01;;;;;;;0.00;0.00;;;14.80;70.50;;;;;;4194470;28;20048;-45
2021/03/25 02:38:27;;;;;;;0.00;0.00;;;14.80;70.60;;;;;;4181734;28;20533;-44
2021/03/25 02:40:51;;;;;;;0.00;0.00;;;14.80;70.60;;;;;;4181572;28;20053;-43
2021/03/25 02:43:16;;;;;;;0.10;0.08;;;14.80;70.60;;;;;;4196285;28;20056;-44
2021/03/25 02:45:41;;;;;;;0.15;0.15;;;14.80;70.70;;;;;;4198100;28;20161;-44
2021/03/25 02:48:08;;;;;;;0.65;0.57;;;14.80;70.80;;;;;;4197863;28;20049;-46
2021/03/25 02:50:34;;;;;;;0.10;0.10;;;14.80;70.80;;;;;;4180456;28;20053;-43
2021/03/25 02:53:00;;;;;;;0.63;0.63;;;14.80;70.90;;;;;;4192733;28;20064;-43
2021/03/25 02:55:21;;;;;;;0.98;0.98;;;14.70;70.80;;;;;;4196887;28;20051;-43
2021/03/25 02:57:59;;;;;;;1.88;1.80;;;14.70;70.80;;;;;;4196686;28;20076;-43
2021/03/25 03:00:34;;;;;;;0.30;0.30;;;14.70;70.80;;;;;;4197892;28;20089;-43
2021/03/25 03:03:00;;;;;;;0.00;0.00;;;14.70;70.90;;;;;;4196286;28;20171;-43
2021/03/25 03:05:44;;;;;;;0.25;0.25;;;14.70;71.00;;;;;;4197722;28;20055;-43
2021/03/25 03:08:13;;;;;;;0.55;0.55;;;14.70;71.10;;;;;;4197099;28;20090;-43
2021/03/25 03:10:40;;;;;;;0.17;0.17;;;14.70;71.00;;;;;;4196620;28;20049;-44
2021/03/25 03:13:03;;;;;;;0.90;0.90;;;14.70;70.90;;;;;;4196404;28;20110;-43
2021/03/25 03:15:28;;;;;;;0.98;0.98;;;14.70;71.00;;;;;;4197559;28;20048;-44
2021/03/25 03:18:00;;;;;;;0.65;0.65;;;14.70;71.00;;;;;;4196560;28;20071;-44
2021/03/25 03:20:52;;;;;;;0.13;0.13;;;14.70;71.10;;;;;;4193812;28;20135;-43
2021/03/25 03:23:39;;;;;;;1.73;1.15;;;14.60;71.10;;;;;;4179787;28;20053;-44
2021/03/25 03:26:05;;;;;;;0.30;0.30;;;14.60;71.20;;;;;;4180969;28;20512;-44
2021/03/25 03:28:30;;;;;;;0.08;0.08;;;14.60;71.10;;;;;;4189099;28;20048;-44
2021/03/25 03:31:07;;;;;;;0.00;0.00;;;14.60;71.20;;;;;;4196058;28;20167;-43
2021/03/25 03:33:33;;;;;;;0.13;0.13;;;14.60;71.20;;;;;;4196204;28;20445;-44
2021/03/25 03:36:01;;;;;;;0.73;0.73;;;14.60;71.20;;;;;;4196249;28;20076;-43
2021/03/25 03:38:27;;;;;;;0.00;0.00;;;14.60;71.20;;;;;;4195998;28;20052;-43
2021/03/25 03:41:06;;;;;;;0.10;0.10;;;14.60;71.20;;;;;;4196121;28;20062;-44
2021/03/25 03:43:28;;;;;;;1.05;0.30;;;14.60;71.20;;;;;;4196023;28;20068;-44
2021/03/25 03:45:55;;;;;;;0.43;0.43;;;14.60;71.30;;;;;;4196081;28;20056;-48
2021/03/25 03:48:22;;;;;;;0.32;0.32;;;14.50;71.20;;;;;;4197090;28;20415;-50
2021/03/25 03:50:47;;;;;;;0.95;0.95;;;14.60;71.30;;;;;;4193407;28;20483;-43
2021/03/25 03:53:10;;;;;;;0.05;0.05;;;14.60;71.40;;;;;;4186083;28;20067;-47
2021/03/25 03:55:32;;;;;;;0.00;0.00;;;14.50;71.50;;;;;;4195991;28;20052;-47
2021/03/25 03:58:06;;;;;;;0.05;0.05;;;14.50;71.30;;;;;;4195727;28;20518;-48
2021/03/25 04:00:30;;;;;;;0.05;0.05;;;14.50;71.30;;;;;;4195457;28;20044;-44
2021/03/25 04:03:05;;;;;;;0.43;0.43;;;14.60;71.40;;;;;;4195617;28;20056;-47
2021/03/25 04:05:54;;;;;;;0.35;0.35;;;14.50;71.40;;;;;;4182516;28;20578;-49
2021/03/25 04:08:30;;;;;;;0.40;0.40;;;14.50;71.50;;;;;;4195415;28;20549;-47
2021/03/25 04:11:06;;;;;;;0.00;0.00;;;14.50;71.40;;;;;;4196668;28;20714;-48
2021/03/25 04:13:31;;;;;;;0.57;0.57;;;14.50;71.50;;;;;;4196116;28;20154;-46
2021/03/25 04:15:54;;;;;;;0.08;0.08;;;14.50;71.50;;;;;;4196507;28;20059;-43
2021/03/25 04:18:20;;;;;;;0.05;0.05;;;14.50;71.60;;;;;;4196704;28;20139;-45
2021/03/25 04:20:59;;;;;;;0.52;0.52;;;14.50;71.60;;;;;;4195530;28;20063;-43
2021/03/25 04:23:29;;;;;;;0.05;0.05;;;14.50;71.60;;;;;;4196291;28;20523;-44
2021/03/25 04:25:56;;;;;;;0.75;0.63;;;14.50;71.60;;;;;;4196516;28;20422;-42
2021/03/25 04:28:24;;;;;;;0.43;0.43;;;14.50;71.70;;;;;;4196041;28;20525;-43
2021/03/25 04:30:47;;;;;;;0.55;0.55;;;14.50;71.80;;;;;;4196351;28;20599;-44
2021/03/25 04:33:08;;;;;;;0.00;0.00;;;14.50;71.60;;;;;;4196291;28;20503;-44
2021/03/25 04:35:29;;;;;;;1.75;0.70;;;14.50;71.60;;;;;;4196033;28;20535;-42
2021/03/25 04:37:53;;;;;;;0.75;0.75;;;14.50;71.60;;;;;;4196153;28;20061;-42
2021/03/25 04:40:24;;;;;;;0.30;0.30;;;14.40;71.70;;;;;;4196293;28;20553;-42
2021/03/25 04:42:46;;;;;;;0.32;0.32;;;14.40;71.70;;;;;;4196060;28;20056;-42
2021/03/25 04:45:16;;;;;;;0.43;0.43;;;14.40;71.60;;;;;;4195131;28;20106;-42
2021/03/25 04:47:44;;;;;;;1.25;0.95;;;14.40;71.70;;;;;;4195823;28;20064;-43
2021/03/25 04:50:13;;;;;;;0.10;0.10;;;14.40;71.80;;;;;;4195880;28;20627;-42
2021/03/25 04:52:35;;;;;;;2.13;2.08;;;14.30;71.80;;;;;;4195416;28;20429;-42
2021/03/25 04:55:06;;;;;;;1.13;1.10;;;14.30;71.90;;;;;;4195974;28;20045;-43
2021/03/25 04:57:34;;;;;;;0.08;0.08;;;14.30;71.80;;;;;;4195926;28;20048;-42
2021/03/25 04:59:57;;;;;;;1.45;0.30;;;14.40;71.80;;;;;;4195920;28;20548;-45
2021/03/25 05:02:18;;;;;;;0.75;0.75;;;14.30;71.80;;;;;;4195718;28;20487;-43
2021/03/25 05:04:40;;;;;;;;;;;14.40;71.80;;;;;;4196297;28;20048;-42
2021/03/25 05:07:02;;;;;;;0.00;0.00;;;14.40;71.90;;;;;;4195924;28;20306;-42
2021/03/25 05:09:24;;;;;;;0.30;0.30;;;14.30;71.80;;;;;;4195853;28;20056;-42
2021/03/25 05:11:46;;;;;;;1.25;1.00;;;14.30;71.80;;;;;;4195543;28;20059;-43
2021/03/25 05:14:14;;;;;;;5.25;1.58;;;14.30;71.80;;;;;;4195196;28;20105;-43
2021/03/25 05:16:45;;;;;;;0.32;0.32;;;14.30;71.90;;;;;;4195782;28;20499;-43
2021/03/25 05:19:16;;;;;;;0.45;0.45;;;14.30;71.90;;;;;;4195780;28;20131;-43
2021/03/25 05:21:47;;;;;;;0.30;0.30;;;14.30;71.90;;;;;;4195592;28;20094;-42
2021/03/25 05:24:18;;;;;;;0.20;0.20;;;14.30;71.90;;;;;;4195601;28;20080;-42
2021/03/25 05:26:46;;;;;;;0.00;0.00;;;14.20;71.90;;;;;;4195011;28;20134;-42
2021/03/25 05:29:09;;;;;;;1.05;0.82;;;14.30;72.00;;;;;;4195253;28;20059;-43
2021/03/25 05:31:33;;;;;;;0.22;0.22;;;14.20;71.90;;;;;;4195263;28;20088;-42
2021/03/25 05:33:58;;;;;;;0.63;0.63;;;14.20;71.90;;;;;;4194244;28;20091;-44
2021/03/25 05:36:20;;;;;;;0.13;0.13;;;14.20;71.90;;;;;;4195542;28;20048;-43
2021/03/25 05:38:41;;;;;;;0.98;0.98;;;14.20;71.90;;;;;;4195528;28;20628;-43
2021/03/25 05:41:11;;;;;;;0.17;0.17;;;14.20;71.90;;;;;;4194212;28;20048;-47
2021/03/25 05:44:32;;;;;;;0.52;0.52;;;14.20;71.90;;;;;;4195420;28;20052;-47
2021/03/25 05:47:04;;;;;;;1.58;1.00;;;14.20;72.00;;;;;;4127951;28;20061;-43
2021/03/25 05:49:28;;;;;;;;;;;14.20;71.90;;;;;;4128426;28;20086;-44
2021/03/25 05:51:59;;;;;;;0.98;0.98;;;14.20;71.90;;;;;;4176529;28;19924;-43
2021/03/25 05:54:34;;;;;;;0.28;0.28;;;14.20;71.90;;;;;;4194928;28;20135;-43
2021/03/25 05:57:11;;;;;;;0.68;0.68;;;14.20;71.90;;;;;;4195237;28;20057;-45
2021/03/25 05:59:48;;;;;;;0.10;0.10;;;14.20;71.90;;;;;;4177978;28;20547;-44
2021/03/25 06:02:20;;;;;;;0.55;0.55;;;14.20;71.80;;;;;;4179855;28;20049;-44
2021/03/25 06:04:41;;;;;;;0.50;0.50;;;14.10;71.70;;;;;;4194184;28;20055;-43
2021/03/25 06:07:34;;;;;;;0.45;0.45;;;14.20;71.90;;;;;;4195446;28;20076;-44
2021/03/25 06:10:07;;;;;;;0.30;0.30;;;14.20;71.90;;;;;;4195397;28;20537;-44
2021/03/25 06:12:42;;;;;;;0.22;0.22;;;14.20;71.80;;;;;;4194702;28;20131;-50
2021/03/25 06:15:21;;;;;;;0.28;0.22;;;14.20;71.80;;;;;;4194976;28;20056;-43
2021/03/25 06:17:55;;;;;;;0.13;0.13;;;14.20;72.20;;;;;;4195298;28;20056;-43
2021/03/25 06:20:25;;;;;;;1.33;1.30;;;14.20;72.60;;;;;;4195231;28;20079;-43
2021/03/25 06:22:59;;;;;;;1.05;1.05;;;14.20;72.80;;;;;;4194913;28;20430;-43
2021/03/25 06:25:36;;;;;;;1.17;1.02;;;14.20;73.00;;;;;;4195147;28;20063;-43
2021/03/25 06:28:12;;;;;;;0.32;0.32;;;14.20;73.10;;;;;;4195033;28;20059;-43
2021/03/25 06:30:39;;;;;;;0.43;0.43;;;14.20;73.30;;;;;;4191430;28;20068;-45
2021/03/25 06:33:06;;;;;;;0.10;0.10;;;14.30;73.80;;;;;;4192716;28;20080;-44
2021/03/25 06:35:34;;;;;;;0.98;0.98;;;14.40;74.10;;;;;;4194893;28;20509;-42
2021/03/25 06:38:02;;;;;;;4.80;2.08;;;14.40;73.70;;;;;;4196920;28;20057;-43
2021/03/25 06:40:28;;;;;;;0.10;0.10;;;14.50;73.20;;;;;;4197990;28;20049;-43
2021/03/25 06:42:56;;;;;;;0.20;0.20;;;14.40;72.80;;;;;;4196923;28;20392;-45
2021/03/25 06:45:23;;;;;;;8.10;2.63;;;14.40;72.60;;;;;;4197960;28;20162;-43
2021/03/25 06:47:53;;;;;;;1.75;1.15;;;14.40;72.60;;;;;;4198274;28;20052;-45
2021/03/25 06:50:18;;;;;;;0.10;0.10;;;14.40;72.40;;;;;;4197431;28;20052;-43
2021/03/25 06:52:39;;;;;;;0.30;0.30;;;14.40;72.30;;;;;;4197902;28;20135;-43
2021/03/25 06:55:05;;;;;;;0.20;0.20;;;14.40;72.20;;;;;;4197872;28;20056;-44
2021/03/25 06:57:35;;;;;;;0.70;0.70;;;14.30;72.00;;;;;;4188205;28;20041;-43
2021/03/25 06:59:56;;;;;;;0.95;0.95;;;14.30;71.90;;;;;;4197948;28;20423;-45
2021/03/25 07:02:23;;;;;;;3.03;2.63;;;14.30;71.80;;;;;;4197983;28;20056;-43
2021/03/25 07:04:50;;;;;;;1.15;1.15;;;14.30;71.80;;;;;;4197412;28;20044;-43
2021/03/25 07:07:16;;;;;;;3.67;0.88;;;14.30;71.80;;;;;;4197704;28;20092;-44
2021/03/25 07:09:39;;;;;;;1.80;1.70;;;14.30;71.80;;;;;;4197626;28;20527;-44
2021/03/25 07:12:03;;;;;;;3.35;1.58;;;14.30;71.70;;;;;;4197722;28;20056;-45
2021/03/25 07:14:34;;;;;;;0.77;0.77;;;14.30;71.70;;;;;;4197628;28;20052;-44
2021/03/25 07:16:56;;;;;;;3.53;2.63;;;14.30;71.70;;;;;;4197630;28;20522;-44
2021/03/25 07:19:21;;;;;;;0.13;0.13;;;14.30;71.70;;;;;;4197673;28;20294;-43
2021/03/25 07:21:43;;;;;;;3.10;1.48;;;14.30;71.70;;;;;;4197055;28;20131;-43
2021/03/25 07:24:09;;;;;;;0.93;0.52;;;14.30;71.60;;;;;;4197448;28;20502;-43
2021/03/25 07:26:38;;;;;;;1.85;1.05;;;14.30;71.60;;;;;;4197531;28;20404;-47
2021/03/25 07:29:17;;;;;;;0.90;0.82;;;14.30;71.50;;;;;;4196477;28;20526;-48
2021/03/25 07:31:40;;;;;;;5.38;0.60;;;14.30;71.50;;;;;;4197380;28;20495;-50
2021/03/25 07:34:03;;;;;;;0.57;0.57;;;14.30;71.50;;;;;;4197033;28;20052;-51
2021/03/25 07:36:24;;;;;;;1.23;1.23;;;14.30;71.40;;;;;;4187714;28;20052;-43
2021/03/25 07:38:47;;;;;;;0.50;0.50;;;14.30;71.40;;;;;;4197294;28;20474;-46
2021/03/25 07:41:20;;;;;;;1.27;0.70;;;14.30;71.30;;;;;;4197060;28;20422;-46
2021/03/25 07:43:56;;;;;;;8.75;1.73;;;14.40;71.40;;;;;;4197012;28;20053;-44
2021/03/25 07:46:24;;;;;;;1.85;1.75;;;14.40;71.30;;;;;;4197042;28;20476;-44
2021/03/25 07:48:56;;;;;;;1.50;1.08;;;14.40;71.20;;;;;;4196451;28;20714;-46
2021/03/25 07:51:18;;;;;;;1.02;1.00;;;14.40;70.90;;;;;;4196923;28;20109;-45
2021/03/25 07:53:39;;;;;;;0.77;0.77;;;14.50;70.70;;;;;;4196771;28;20056;-46
2021/03/25 07:56:06;;;;;;;0.47;0.47;;;14.50;70.60;;;;;;4197115;28;20092;-44
2021/03/25 07:58:37;;;;;;;1.63;1.52;;;14.50;70.40;;;;;;4197004;28;20059;-44
2021/03/25 08:01:05;;;;;;;1.65;0.93;;;14.50;70.30;;;;;;4195933;28;20052;-44
2021/03/25 08:03:26;;;;;;;1.05;0.98;;;14.50;70.10;;;;;;4196645;28;20581;-45
2021/03/25 08:05:49;;;;;;;3.47;2.60;;;14.50;70.00;;;;;;4196827;28;20127;-44
2021/03/25 08:08:22;;;;;;;1.10;1.10;;;14.60;70.00;;;;;;4196876;28;20102;-44
2021/03/25 08:10:46;;;;;;;1.52;1.52;;;14.60;69.90;;;;;;4196761;28;20497;-45
2021/03/25 08:13:16;;;;;;;2.05;0.55;;;14.60;69.70;;;;;;4196837;28;20143;-43
2021/03/25 08:15:40;;;;;;;0.43;0.43;;;14.60;69.60;;;;;;4196776;28;20568;-43
2021/03/25 08:18:37;;;;;;;2.50;2.20;;;14.70;69.50;;;;;;4196738;28;20052;-46
2021/03/25 08:21:14;;;;;;;0.63;0.63;;;14.70;69.40;;;;;;4180109;28;20099;-45
2021/03/25 08:24:02;;;;;;;2.15;2.05;;;14.70;69.20;;;;;;4179919;28;20056;-46
2021/03/25 08:26:31;;;;;;;4.13;3.20;;;14.70;69.00;;;;;;4180070;28;20458;-45
2021/03/25 08:29:06;;;;;;;5.72;1.27;;;14.70;68.90;;;;;;4179961;28;20053;-47
2021/03/25 08:31:32;;;;;;;2.00;1.92;;;14.70;68.60;;;;;;4179672;28;20051;-45
2021/03/25 08:34:15;;;;;;;4.22;3.92;;;14.80;68.60;;;;;;4179507;28;20075;-44
2021/03/25 08:36:52;;;;;;;2.53;1.77;;;14.80;68.40;;;;;;4179851;28;20076;-44
2021/03/25 08:39:30;;;;;;;2.25;2.03;;;14.80;69.10;;;;;;4189179;28;20495;-44
2021/03/25 08:41:58;;;;;;;0.55;0.55;;;14.80;68.00;;;;;;4196284;28;20415;-45
2021/03/25 08:44:31;;;;;;;2.08;1.98;;;14.80;68.00;;;;;;4195542;28;20067;-45
2021/03/25 08:46:56;;;;;;;0.63;0.63;;;14.80;67.80;;;;;;4196206;28;20090;-44
2021/03/25 08:49:25;;;;;;;0.63;0.63;;;14.90;67.60;;;;;;4196149;28;20414;-44
2021/03/25 08:51:47;;;;;;;0.35;0.35;;;14.90;67.70;;;;;;4196097;28;20056;-44
2021/03/25 08:54:16;;;;;;;3.92;3.63;;;14.80;67.50;;;;;;4195566;28;20449;-44
2021/03/25 08:56:42;;;;;;;1.73;1.70;;;14.90;67.50;;;;;;4196166;28;20078;-44
2021/03/25 08:59:11;;;;;;;1.48;1.48;;;14.90;67.30;;;;;;4195834;28;20169;-44
2021/03/25 09:01:42;;;;;;;2.10;2.10;;;14.90;67.10;;;;;;4196058;28;20059;-44
2021/03/25 09:04:09;;;;;;;4.13;3.75;;;14.90;67.00;;;;;;4195726;28;20053;-44
2021/03/25 09:06:32;;;;;;;5.22;0.98;;;14.90;66.80;;;;;;4195872;28;20580;-44
2021/03/25 09:08:58;;;;;;;1.90;1.80;;;14.90;66.70;;;;;;4195874;28;20052;-44
2021/03/25 09:11:20;;;;;;;3.75;1.65;;;14.90;66.50;;;;;;4194485;28;20044;-45
2021/03/25 09:13:41;;;;;;;;;;;14.90;66.50;;;;;;4195147;28;20139;-43
2021/03/25 09:16:10;;;;;;;0.22;0.22;;;14.90;66.40;;;;;;4195805;28;19932;-44
2021/03/25 09:18:32;;;;;;;0.38;0.38;;;14.90;66.40;;;;;;4195706;28;20048;-43
2021/03/25 09:20:56;;;;;;;1.88;1.20;;;14.90;66.40;;;;;;4195678;28;20056;-45
2021/03/25 09:23:40;;;;;;;0.55;0.55;;;14.90;66.40;;;;;;4195712;28;20049;-44
2021/03/25 09:26:03;;;;;;;0.80;0.80;;;15.00;66.40;;;;;;4195777;28;20079;-50
2021/03/25 09:29:00;;;;;;;1.75;1.75;;;15.00;66.30;;;;;;4195720;28;20062;-48
2021/03/25 09:31:22;;;;;;;1.27;1.17;;;14.90;66.20;;;;;;4195740;28;20052;-45
2021/03/25 09:33:48;;;;;;;3.58;2.83;;;14.90;66.20;;;;;;4195586;28;20045;-47
2021/03/25 09:36:43;;;;;;;0.50;0.50;;;14.90;66.40;;;;;;4195510;28;20177;-44
2021/03/25 09:39:26;;;;;;;3.78;1.73;;;14.90;66.30;;;;;;4112040;28;20859;-45
2021/03/25 09:41:47;;;;;;;1.27;1.17;;;14.90;66.30;;;;;;4111934;28;20063;-44
2021/03/25 09:44:25;;;;;;;0.63;0.63;;;14.90;66.40;;;;;;4150698;28;20549;-45
2021/03/25 09:46:47;;;;;;;2.35;1.83;;;14.90;66.50;;;;;;4178988;28;20049;-45
2021/03/25 09:49:28;;;;;;;4.30;1.65;;;14.90;66.60;;;;;;4178992;28;20609;-44
2021/03/25 09:52:13;;;;;;;0.20;0.20;;;14.90;66.70;;;;;;4178858;28;20049;-44
2021/03/25 09:54:35;;;;;;;17.42;2.08;;;14.90;66.70;;;;;;4178727;28;20061;-43
2021/03/25 09:57:18;;;;;;;2.20;2.10;;;14.90;66.80;;;;;;4178954;28;20053;-43
2021/03/25 09:59:52;;;;;;;1.65;1.63;;;14.90;66.80;;;;;;4178825;28;20062;-44
2021/03/25 10:02:13;;;;;;;2.33;2.28;;;15.00;66.70;;;;;;4178913;28;20529;-43
2021/03/25 10:04:38;;;;;;;;;;;15.00;66.50;;;;;;4179126;28;20057;-45
2021/03/25 10:07:25;;;;;;;0.10;0.10;;;15.00;66.30;;;;;;4178840;28;20035;-44
2021/03/25 10:10:28;;;;;;;2.17;1.83;;;15.10;66.10;;;;;;4178697;28;20130;-46
2021/03/25 10:13:14;;;;;;;0.47;0.47;;;15.20;65.90;;;;;;4168840;28;20049;-45
2021/03/25 10:15:54;;;;;;;0.55;0.55;;;15.20;65.60;;;;;;4180981;28;20057;-44
2021/03/25 10:18:49;;;;;;;2.28;2.08;;;15.20;65.40;;;;;;4182126;28;20526;-46
2021/03/25 10:21:13;;;;;;;2.22;1.98;;;15.30;65.40;;;;;;4192430;28;20084;-44
2021/03/25 10:23:37;;;;;;;0.95;0.95;;;15.30;65.10;;;;;;4198515;28;20137;-43
2021/03/25 10:26:20;;;;;;;0.47;0.47;;;15.40;65.20;;;;;;4198447;28;20053;-44
2021/03/25 10:28:45;;;;;;;2.60;1.40;;;15.40;64.90;;;;;;4181876;28;20103;-47
2021/03/25 10:31:12;;;;;;;1.02;1.02;;;15.40;64.90;;;;;;4190261;28;20055;-48
2021/03/25 10:33:35;;;;;;;0.40;0.40;;;15.40;64.80;;;;;;4198376;28;20419;-45
2021/03/25 10:36:01;;;;;;;0.68;0.68;;;15.40;64.80;;;;;;4198357;28;20087;-48
2021/03/25 10:38:26;;;;;;;0.52;0.52;;;15.40;65.20;;;;;;4198361;28;20048;-46
2021/03/25 10:40:48;;;;;;;0.45;0.45;;;15.40;65.40;;;;;;4198109;28;20048;-44
2021/03/25 10:43:18;;;;;;;0.40;0.40;;;15.50;65.40;;;;;;4198202;28;20061;-46
2021/03/25 10:45:49;;;;;;;0.70;0.70;;;15.50;65.30;;;;;;4198078;28;20145;-45
2021/03/25 10:48:20;;;;;;;2.60;2.47;;;15.50;65.10;;;;;;4197003;28;20056;-47
2021/03/25 10:50:49;;;;;;;4.97;2.17;;;15.60;65.10;;;;;;4197724;28;20048;-47
2021/03/25 10:53:15;;;;;;;4.13;1.00;;;15.60;65.00;;;;;;4197700;28;20055;-46
2021/03/25 10:55:41;;;;;;;0.95;0.95;;;15.60;65.90;;;;;;4197685;28;20056;-47
2021/03/25 10:58:03;;;;;;;1.10;1.10;;;15.70;65.30;;;;;;4197778;28;20107;-46
2021/03/25 11:00:29;;;;;;;1.65;1.55;;;15.80;65.00;;;;;;4197862;28;20057;-45
2021/03/25 11:02:50;;;;;;;3.15;3.00;;;15.70;64.60;;;;;;4197260;28;20139;-47
2021/03/25 11:05:17;;;;;;;0.40;0.40;;;15.80;65.10;;;;;;4197783;28;20052;-45
2021/03/25 11:07:40;;;;;;;1.08;0.60;;;15.80;64.00;;;;;;4197663;28;20163;-48
2021/03/25 11:10:02;;;;;;;0.88;0.88;;;15.80;63.80;;;;;;4197660;28;20059;-51
2021/03/25 11:12:28;;;;;;;1.80;1.70;;;15.90;63.60;;;;;;4197910;28;20103;-52
2021/03/25 11:14:55;;;;;;;0.65;0.65;;;15.90;63.50;;;;;;4197452;28;20388;-49
2021/03/25 11:17:20;;;;;;;1.38;0.80;;;15.90;64.30;;;;;;4197802;28;20056;-48
2021/03/25 11:19:42;;;;;;;2.83;1.35;;;15.90;63.20;;;;;;4197102;28;20060;-44
2021/03/25 11:22:03;;;;;;;0.63;0.63;;;15.90;63.10;;;;;;4197550;28;20064;-45
2021/03/25 11:24:26;;;;;;;1.02;1.02;;;15.90;62.90;;;;;;4196105;28;20052;-44
2021/03/25 11:26:47;;;;;;;0.52;0.52;;;15.90;62.80;;;;;;4194130;28;20461;-45
2021/03/25 11:29:10;;;;;;;;;;;15.90;62.80;;;;;;4197850;28;20477;-44
2021/03/25 11:31:32;;;;;;;0.85;0.85;;;15.90;62.70;;;;;;4197307;28;19928;-45
2021/03/25 11:33:54;;;;;;;0.65;0.32;;;15.90;62.70;;;;;;4196678;28;20079;-45
2021/03/25 11:36:33;;;;;;;1.08;1.08;;;16.00;62.60;;;;;;4180790;28;20336;-45
2021/03/25 11:38:54;;;;;;;2.67;1.40;;;15.90;62.40;;;;;;4188679;28;20063;-46
2021/03/25 11:41:34;;;;;;;0.10;0.10;;;16.00;62.30;;;;;;4197189;28;20060;-44
2021/03/25 11:43:59;;;;;;;1.33;1.23;;;16.00;62.30;;;;;;4196390;28;20064;-44
2021/03/25 11:46:29;;;;;;;0.88;0.88;;;16.00;62.20;;;;;;4197194;28;20395;-45
2021/03/25 11:49:00;;;;;;;3.60;0.85;;;16.00;62.10;;;;;;4196801;28;20052;-49
2021/03/25 11:51:24;;;;;;;2.50;2.15;;;16.10;62.20;;;;;;4196961;28;20067;-45
2021/03/25 11:53:46;;;;;;;0.13;0.13;;;16.10;62.00;;;;;;4196736;28;20064;-47
2021/03/25 11:56:22;;;;;;;0.88;0.88;;;16.10;62.00;;;;;;4197112;28;20469;-44
2021/03/25 11:58:50;;;;;;;1.88;1.08;;;16.10;62.00;;;;;;4196811;28;20053;-46
2021/03/25 12:01:23;;;;;;;0.85;0.85;;;16.10;62.10;;;;;;4195403;28;20047;-45
2021/03/25 12:03:50;;;;;;;0.35;0.35;;;16.00;62.30;;;;;;4184880;28;20052;-44
2021/03/25 12:06:17;;;;;;;0.40;0.40;;;16.00;61.90;;;;;;4180418;28;20491;-47
2021/03/25 12:08:38;;;;;;;1.63;1.38;;;16.00;61.60;;;;;;4180167;28;20396;-47
2021/03/25 12:11:05;;;;;;;1.08;1.08;;;16.00;61.80;;;;;;4180391;28;20055;-45
2021/03/25 12:13:26;;;;;;;0.40;0.40;;;16.00;61.60;;;;;;4187631;28;20166;-45
2021/03/25 12:15:50;;;;;;;2.90;2.70;;;16.00;61.50;;;;;;4196670;28;20063;-45
2021/03/25 12:18:21;;;;;;;2.30;0.95;;;16.00;62.40;;;;;;4196415;28;20051;-44
2021/03/25 12:20:43;;;;;;;0.73;0.73;;;16.00;61.50;;;;;;4195474;28;20052;-45
2021/03/25 12:23:08;;;;;;;6.20;1.38;;;16.00;61.40;;;;;;4196429;28;20062;-44
2021/03/25 12:25:32;;;;;;;0.60;0.60;;;16.00;61.50;;;;;;4196458;28;20052;-44
2021/03/25 12:27:53;;;;;;;1.35;1.25;;;16.00;61.50;;;;;;4196581;28;20527;-45
2021/03/25 12:30:15;;;;;;;2.63;1.95;;;16.00;61.40;;;;;;4194842;28;20052;-46
2021/03/25 12:32:36;;;;;;;1.48;1.38;;;16.00;61.40;;;;;;4196109;28;20066;-46
2021/03/25 12:35:02;;;;;;;0.52;0.52;;;16.00;61.20;;;;;;4195547;28;20461;-44
2021/03/25 12:37:27;;;;;;;0.47;0.47;;;16.00;61.10;;;;;;4196327;28;20048;-43
2021/03/25 12:39:48;;;;;;;1.63;1.52;;;15.90;62.20;;;;;;4196333;28;20052;-44
2021/03/25 12:42:10;;;;;;;;;;;15.90;61.80;;;;;;4196182;28;20086;-45
2021/03/25 12:44:33;;;;;;;0.32;0.32;;;15.90;61.90;;;;;;4195228;28;19920;-44
2021/03/25 12:46:56;;;;;;;0.10;0.10;;;15.90;62.20;;;;;;4196218;28;20546;-46
2021/03/25 12:49:17;;;;;;;3.67;1.33;;;15.80;62.40;;;;;;4193507;28;20045;-47
2021/03/25 12:51:38;;;;;;;0.20;0.20;;;15.80;62.80;;;;;;4191828;28;20040;-44
2021/03/25 12:54:00;;;;;;;0.50;0.50;;;15.80;63.30;;;;;;4194042;28;20411;-45